Time;durP1;ratioP1;P1;durP2;ratioP2;P2;SDS_P1;SDS_P2;PMS_P1;PMS_P2;Temp;Humidity;BMP_temperature;BMP_pressure;BME280_temperature;BME280_humidity;BME280_pressure;Samples;Min_cycle;Max_cycle;Signal;HPM_P1;HPM_P2
2021/05/13 00:02:05;;;;;;;21.83;7.22;;;11.40;99.90;;;;;;4822102;29;20103;-80
2021/05/13 00:04:31;;;;;;;20.08;6.70;;;11.40;99.90;;;;;;4822048;29;20380;-80
2021/05/13 00:06:57;;;;;;;24.10;7.72;;;11.30;99.90;;;;;;4823257;29;20089;-80
2021/05/13 00:09:23;;;;;;;20.77;7.03;;;11.40;99.90;;;;;;4822628;29;21023;-80
2021/05/13 00:11:51;;;;;;;26.70;7.50;;;11.30;99.90;;;;;;4822063;29;20038;-80
2021/05/13 00:14:17;;;;;;;24.95;6.75;;;11.30;99.90;;;;;;4822155;29;20150;-80
2021/05/13 00:16:44;;;;;;;27.25;7.65;;;11.30;99.90;;;;;;4823116;29;20499;-80
2021/05/13 00:19:13;;;;;;;23.17;6.65;;;11.20;99.90;;;;;;4823231;29;20466;-80
2021/05/13 00:21:42;;;;;;;27.27;7.15;;;11.20;99.90;;;;;;4823008;29;20492;-80
2021/05/13 00:24:09;;;;;;;23.33;6.80;;;11.10;99.90;;;;;;4823263;29;20038;-80
2021/05/13 00:26:40;;;;;;;21.90;6.68;;;11.10;99.90;;;;;;4821783;29;20047;-80
2021/05/13 00:29:27;;;;;;;27.35;7.07;;;11.00;99.90;;;;;;4823313;29;20058;-80
2021/05/13 00:31:52;;;;;;;19.55;6.80;;;11.00;99.90;;;;;;4826383;29;20046;-80
2021/05/13 00:34:18;;;;;;;28.30;7.53;;;11.00;99.90;;;;;;4825310;29;20480;-79
2021/05/13 00:36:44;;;;;;;31.88;7.93;;;10.90;99.90;;;;;;4825198;29;20061;-80
2021/05/13 00:39:11;;;;;;;26.33;6.45;;;10.90;99.90;;;;;;4825131;29;20121;-79
2021/05/13 00:41:37;;;;;;;27.85;7.20;;;10.90;99.90;;;;;;4825380;29;20118;-80
2021/05/13 00:44:05;;;;;;;22.25;7.28;;;11.20;99.90;;;;;;4826492;29;20054;-73
2021/05/13 00:46:35;;;;;;;27.02;7.40;;;10.80;99.90;;;;;;4825286;29;20070;-79
2021/05/13 00:49:08;;;;;;;31.58;8.30;;;10.80;99.90;;;;;;4825382;29;20169;-73
2021/05/13 00:51:34;;;;;;;29.27;8.68;;;10.80;99.90;;;;;;4826064;29;20046;-73
2021/05/13 00:54:00;;;;;;;23.02;8.07;;;10.80;99.90;;;;;;4826141;29;20523;-74
2021/05/13 00:56:30;;;;;;;21.92;7.85;;;10.80;99.90;;;;;;4824863;29;20121;-74
2021/05/13 00:59:00;;;;;;;26.05;7.25;;;10.70;99.90;;;;;;4825016;29;20042;-79
2021/05/13 01:01:37;;;;;;;24.15;8.10;;;10.70;99.90;;;;;;4825836;29;20042;-79
2021/05/13 01:04:03;;;;;;;22.85;8.48;;;10.70;99.90;;;;;;4816827;29;20496;-79
2021/05/13 01:06:31;;;;;;;23.92;9.63;;;10.70;99.90;;;;;;4822675;29;20049;-73
2021/05/13 01:08:56;;;;;;;26.80;10.55;;;10.60;99.90;;;;;;4825934;29;20038;-79
2021/05/13 01:11:22;;;;;;;27.90;10.35;;;10.60;99.90;;;;;;4825777;29;20106;-79
2021/05/13 01:14:03;;;;;;;23.63;9.73;;;10.70;99.90;;;;;;4825938;29;20543;-80
2021/05/13 01:16:44;;;;;;;22.25;9.77;;;10.60;99.90;;;;;;4824815;29;20042;-79
2021/05/13 01:19:10;;;;;;;24.92;9.20;;;10.60;99.90;;;;;;4825719;29;20080;-79
2021/05/13 01:21:39;;;;;;;25.25;8.93;;;10.60;99.90;;;;;;4824371;29;20594;-79
2021/05/13 01:24:06;;;;;;;26.52;8.60;;;10.60;99.90;;;;;;4825727;29;20039;-79
2021/05/13 01:26:32;;;;;;;19.85;8.52;;;10.60;99.90;;;;;;4825742;29;20047;-79
2021/05/13 01:28:59;;;;;;;21.10;8.23;;;10.60;99.90;;;;;;4824290;29;20449;-80
2021/05/13 01:31:25;;;;;;;26.27;7.95;;;10.50;99.90;;;;;;4824564;29;20046;-79
2021/05/13 01:33:51;;;;;;;20.65;7.28;;;10.50;99.90;;;;;;4825328;29;20404;-79
2021/05/13 01:36:17;;;;;;;23.08;7.15;;;10.50;99.90;;;;;;4825337;29;20457;-79
2021/05/13 01:38:42;;;;;;;21.10;7.55;;;10.50;99.90;;;;;;4825416;29;20072;-79
2021/05/13 01:41:09;;;;;;;18.58;8.13;;;10.50;99.90;;;;;;4822771;29;20130;-79
2021/05/13 01:43:35;;;;;;;26.23;8.30;;;10.80;99.90;;;;;;4825296;29;20129;-79
2021/05/13 01:46:01;;;;;;;24.10;7.85;;;10.70;99.90;;;;;;4825337;29;20050;-79
2021/05/13 01:48:30;;;;;;;19.38;8.32;;;10.50;99.90;;;;;;4825366;29;20445;-79
2021/05/13 01:50:56;;;;;;;23.88;7.28;;;10.50;99.90;;;;;;4825334;29;20457;-79
2021/05/13 01:53:22;;;;;;;27.30;8.45;;;10.50;99.90;;;;;;4825435;29;20406;-79
2021/05/13 01:55:49;;;;;;;21.02;7.75;;;10.50;99.90;;;;;;4824300;29;20102;-78
2021/05/13 01:58:15;;;;;;;23.13;7.65;;;10.50;99.90;;;;;;4825176;29;20470;-78
2021/05/13 02:00:45;;;;;;;22.33;7.55;;;10.60;99.90;;;;;;4824271;29;20095;-79
2021/05/13 02:03:12;;;;;;;19.83;7.60;;;10.70;99.90;;;;;;4825103;29;20058;-73
2021/05/13 02:05:38;;;;;;;16.05;7.43;;;10.40;99.90;;;;;;4825202;29;20070;-73
2021/05/13 02:08:05;;;;;;;19.67;7.43;;;10.40;99.90;;;;;;4823643;29;20080;-73
2021/05/13 02:10:30;;;;;;;24.42;7.65;;;10.40;99.90;;;;;;4823817;29;20047;-73
2021/05/13 02:12:59;;;;;;;23.23;7.00;;;10.40;99.90;;;;;;4824049;29;20141;-73
2021/05/13 02:15:25;;;;;;;20.02;7.10;;;10.40;99.90;;;;;;4824762;29;20123;-73
2021/05/13 02:17:51;;;;;;;18.90;7.13;;;10.50;99.90;;;;;;4824845;29;20034;-73
2021/05/13 02:20:19;;;;;;;22.20;7.28;;;10.40;99.90;;;;;;4824780;29;20062;-73
2021/05/13 02:22:46;;;;;;;17.77;7.38;;;10.60;99.90;;;;;;4824784;29;20046;-73
2021/05/13 02:25:12;;;;;;;23.73;7.80;;;10.40;99.90;;;;;;4824627;29;20058;-73
2021/05/13 02:27:39;;;;;;;20.63;7.63;;;10.40;99.90;;;;;;4823747;29;20647;-73
2021/05/13 02:30:07;;;;;;;18.17;8.13;;;10.40;99.90;;;;;;4823484;29;20042;-73
2021/05/13 02:32:33;;;;;;;22.48;7.90;;;10.40;99.90;;;;;;4823614;29;20053;-73
2021/05/13 02:34:58;;;;;;;18.38;7.97;;;10.40;99.90;;;;;;4824692;29;20038;-79
2021/05/13 02:37:24;;;;;;;22.77;8.48;;;10.40;99.90;;;;;;4824624;29;20183;-79
2021/05/13 02:39:50;;;;;;;20.88;7.82;;;10.50;99.90;;;;;;4823447;29;20049;-79
2021/05/13 02:42:19;;;;;;;26.55;8.48;;;10.50;99.90;;;;;;4824239;29;20051;-79
2021/05/13 02:44:46;;;;;;;28.48;8.07;;;10.70;99.90;;;;;;4822250;29;20075;-73
2021/05/13 02:47:12;;;;;;;26.80;8.25;;;10.60;99.90;;;;;;4824607;29;20050;-73
2021/05/13 02:49:38;;;;;;;20.30;8.05;;;10.60;99.90;;;;;;4824311;29;20034;-73
2021/05/13 02:52:05;;;;;;;18.95;8.35;;;10.60;99.90;;;;;;4824468;29;20099;-73
2021/05/13 02:54:31;;;;;;;19.92;7.47;;;10.60;99.90;;;;;;4822281;29;20488;-73
2021/05/13 02:56:57;;;;;;;19.90;7.95;;;10.60;99.90;;;;;;4824275;29;20081;-73
2021/05/13 02:59:39;;;;;;;16.38;7.75;;;11.00;99.90;;;;;;4822009;29;20070;-79
2021/05/13 03:02:05;;;;;;;20.08;7.68;;;10.90;99.90;;;;;;4824124;29;20049;-80
2021/05/13 03:04:31;;;;;;;22.00;7.85;;;10.60;99.90;;;;;;4824090;29;20400;-79
2021/05/13 03:06:57;;;;;;;16.40;7.75;;;10.60;99.90;;;;;;4822827;29;20038;-79
2021/05/13 03:09:23;;;;;;;15.82;7.13;;;10.60;99.90;;;;;;4822937;29;20079;-79
2021/05/13 03:11:48;;;;;;;15.07;6.88;;;10.60;99.90;;;;;;4824099;29;20046;-79
2021/05/13 03:14:15;;;;;;;19.05;7.65;;;11.00;99.90;;;;;;4822981;29;20085;-79
2021/05/13 03:16:41;;;;;;;16.48;7.50;;;10.60;99.90;;;;;;4824051;29;20133;-79
2021/05/13 03:19:12;;;;;;;17.15;6.97;;;10.60;99.90;;;;;;4822705;29;20547;-79
2021/05/13 03:21:41;;;;;;;13.98;7.32;;;10.60;99.90;;;;;;4823944;29;20125;-79
2021/05/13 03:24:16;;;;;;;18.67;7.35;;;10.50;99.90;;;;;;4822703;29;20035;-78
2021/05/13 03:29:17;;;;;;;15.43;7.25;;;10.50;99.90;;;;;;4821251;29;20399;-79
2021/05/13 03:31:43;;;;;;;19.15;7.25;;;10.60;99.90;;;;;;4823962;29;20069;-78
2021/05/13 03:34:09;;;;;;;25.30;8.05;;;10.80;99.90;;;;;;4822464;29;20483;-79
2021/05/13 03:36:35;;;;;;;17.50;7.20;;;10.50;99.90;;;;;;4823628;29;20084;-79
2021/05/13 03:39:05;;;;;;;21.45;8.02;;;10.50;99.90;;;;;;4822519;29;20042;-79
2021/05/13 03:41:31;;;;;;;16.30;6.97;;;10.50;99.90;;;;;;4821510;29;20042;-79
2021/05/13 03:43:57;;;;;;;16.25;6.78;;;10.50;99.90;;;;;;4821539;29;20042;-79
2021/05/13 03:46:23;;;;;;;14.73;6.88;;;10.50;99.90;;;;;;4822529;29;20038;-79
2021/05/13 03:48:50;;;;;;;19.67;6.55;;;10.50;99.90;;;;;;4823592;29;20042;-79
2021/05/13 03:51:16;;;;;;;16.42;6.53;;;10.60;99.90;;;;;;4823491;29;20073;-79
2021/05/13 03:53:42;;;;;;;15.98;6.57;;;10.60;99.90;;;;;;4822526;29;20046;-73
2021/05/13 03:56:09;;;;;;;17.33;6.88;;;10.50;99.90;;;;;;4822173;29;20046;-73
2021/05/13 03:58:41;;;;;;;16.88;6.63;;;10.50;99.90;;;;;;4823495;29;20095;-73
2021/05/13 04:03:33;;;;;;;17.73;6.80;;;10.50;99.90;;;;;;4822378;29;20050;-73
2021/05/13 04:05:59;;;;;;;15.27;6.68;;;10.50;99.90;;;;;;4825324;29;20042;-73
2021/05/13 04:08:25;;;;;;;14.00;6.72;;;10.90;99.90;;;;;;4825547;29;20113;-73
2021/05/13 04:10:52;;;;;;;17.60;6.22;;;10.40;99.90;;;;;;4827028;29;20038;-73
2021/05/13 04:13:18;;;;;;;18.80;6.25;;;10.50;99.90;;;;;;4825640;29;20045;-73
2021/05/13 04:15:46;;;;;;;15.80;6.18;;;10.50;99.90;;;;;;4826950;29;20054;-73
2021/05/13 04:18:13;;;;;;;15.35;6.20;;;10.60;99.90;;;;;;4825676;29;20034;-73
2021/05/13 04:20:41;;;;;;;16.73;6.30;;;10.50;99.90;;;;;;4826543;29;20488;-78
2021/05/13 04:23:09;;;;;;;17.42;6.72;;;10.40;99.90;;;;;;4826552;29;20042;-78
2021/05/13 04:25:36;;;;;;;17.60;6.55;;;11.00;99.90;;;;;;4826455;29;20042;-79
2021/05/13 04:28:02;;;;;;;13.18;6.20;;;10.40;99.90;;;;;;4826735;29;20400;-79
2021/05/13 04:30:28;;;;;;;17.05;6.18;;;10.40;99.90;;;;;;4825214;29;20046;-79
2021/05/13 04:32:54;;;;;;;13.18;5.63;;;10.40;99.90;;;;;;4826463;29;20415;-78
2021/05/13 04:35:20;;;;;;;12.60;5.90;;;10.40;99.90;;;;;;4825377;29;20064;-79
2021/05/13 04:37:46;;;;;;;15.00;5.93;;;10.40;99.90;;;;;;4824897;29;20062;-79
2021/05/13 04:40:12;;;;;;;13.95;5.57;;;10.40;99.90;;;;;;4826442;29;20389;-78
2021/05/13 04:42:39;;;;;;;13.95;5.80;;;10.40;99.90;;;;;;4826161;29;20045;-78
2021/05/13 04:45:06;;;;;;;12.80;5.25;;;10.40;99.90;;;;;;4826164;29;20072;-79
2021/05/13 04:50:08;;;;;;;17.05;6.35;;;10.40;99.90;;;;;;4825034;29;20057;-79
2021/05/13 04:52:36;;;;;;;16.75;5.75;;;10.50;99.90;;;;;;4825997;29;20504;-78
2021/05/13 04:55:04;;;;;;;14.40;5.43;;;10.50;99.90;;;;;;4826313;29;20093;-79
2021/05/13 04:57:30;;;;;;;17.08;6.03;;;10.50;99.90;;;;;;4824659;29;20049;-79
2021/05/13 05:00:02;;;;;;;17.80;6.78;;;10.80;99.90;;;;;;4825016;29;20042;-73
2021/05/13 05:02:30;;;;;;;14.35;6.03;;;10.60;99.90;;;;;;4810043;29;20042;-73
2021/05/13 05:04:56;;;;;;;14.98;5.43;;;10.60;99.90;;;;;;4824999;29;20038;-73
2021/05/13 05:07:22;;;;;;;17.52;6.00;;;10.70;99.90;;;;;;4824909;29;20185;-73
2021/05/13 05:09:47;;;;;;;14.50;6.20;;;10.80;99.90;;;;;;4825733;29;20486;-73
2021/05/13 05:12:14;;;;;;;14.68;5.93;;;10.80;99.90;;;;;;4825691;29;20407;-78
2021/05/13 05:14:40;;;;;;;11.40;5.68;;;10.90;99.90;;;;;;4824589;29;20110;-79
2021/05/13 05:17:07;;;;;;;17.10;6.03;;;11.20;99.90;;;;;;4824776;29;20095;-79
2021/05/13 05:19:33;;;;;;;13.50;6.18;;;11.20;99.90;;;;;;4825569;29;20046;-79
2021/05/13 05:21:59;;;;;;;13.57;6.20;;;11.10;99.90;;;;;;4824498;29;20045;-79
2021/05/13 05:24:26;;;;;;;18.83;6.15;;;11.20;99.90;;;;;;4825668;29;20050;-79
2021/05/13 05:26:52;;;;;;;16.20;5.68;;;11.30;99.90;;;;;;4825466;29;20050;-79
2021/05/13 05:29:18;;;;;;;15.73;5.72;;;11.40;99.90;;;;;;4825663;29;20046;-79
2021/05/13 05:31:44;;;;;;;13.65;5.72;;;11.40;99.90;;;;;;4825553;29;20050;-79
2021/05/13 05:34:10;;;;;;;17.20;5.43;;;11.40;99.90;;;;;;4809144;29;20171;-79
2021/05/13 05:36:36;;;;;;;13.52;5.43;;;11.30;99.90;;;;;;4825451;29;20046;-79
2021/05/13 05:39:03;;;;;;;16.40;5.32;;;11.30;99.90;;;;;;4793273;29;20377;-79
2021/05/13 05:41:31;;;;;;;15.02;5.70;;;11.20;99.90;;;;;;4825429;29;20503;-79
2021/05/13 05:43:58;;;;;;;13.65;5.00;;;11.30;99.90;;;;;;4825334;29;20056;-79
2021/05/13 05:46:25;;;;;;;14.30;5.88;;;11.40;99.90;;;;;;4824123;29;20130;-79
2021/05/13 05:48:59;;;;;;;18.45;5.30;;;11.30;99.90;;;;;;4824154;29;20067;-78
2021/05/13 05:51:26;;;;;;;13.18;4.68;;;11.30;99.90;;;;;;4825242;29;20503;-79
2021/05/13 05:53:54;;;;;;;14.85;5.53;;;11.30;99.90;;;;;;4823949;29;20125;-79
2021/05/13 05:56:19;;;;;;;13.77;4.55;;;11.30;99.90;;;;;;4824006;29;20543;-79
2021/05/13 05:58:45;;;;;;;12.32;4.10;;;11.40;99.90;;;;;;4825284;29;20373;-79
2021/05/13 06:01:12;;;;;;;8.05;3.42;;;11.50;99.90;;;;;;4825036;29;20484;-79
2021/05/13 06:03:38;;;;;;;11.93;3.70;;;11.40;99.90;;;;;;4825117;29;20042;-79
2021/05/13 06:06:08;;;;;;;10.77;3.72;;;11.40;99.90;;;;;;4824903;29;20528;-79
2021/05/13 06:08:34;;;;;;;8.45;2.97;;;11.50;99.90;;;;;;4824990;29;20096;-79
2021/05/13 06:11:00;;;;;;;9.52;3.42;;;11.50;99.90;;;;;;4823967;29;20395;-78
2021/05/13 06:13:32;;;;;;;9.27;3.05;;;11.50;99.90;;;;;;4822802;29;20037;-78
2021/05/13 06:15:58;;;;;;;9.05;2.60;;;11.50;99.90;;;;;;4823792;29;20046;-79
2021/05/13 06:18:24;;;;;;;10.13;2.70;;;11.50;99.90;;;;;;4823516;29;20099;-79
2021/05/13 06:20:52;;;;;;;7.78;2.90;;;11.50;99.90;;;;;;4823654;29;20042;-79
2021/05/13 06:23:18;;;;;;;12.40;3.28;;;11.50;99.90;;;;;;4823605;29;20408;-79
2021/05/13 06:25:44;;;;;;;10.88;3.70;;;11.60;99.90;;;;;;4808709;29;20507;-79
2021/05/13 06:28:13;;;;;;;11.80;3.70;;;11.50;99.90;;;;;;4824534;29;20050;-79
2021/05/13 06:30:41;;;;;;;14.35;4.07;;;11.60;99.90;;;;;;4824008;29;20113;-79
2021/05/13 06:33:08;;;;;;;14.10;4.35;;;11.60;99.90;;;;;;4824734;29;20052;-79
2021/05/13 06:35:40;;;;;;;20.42;5.07;;;11.80;99.90;;;;;;4824611;29;20077;-73
2021/05/13 06:38:06;;;;;;;18.10;4.97;;;11.70;99.90;;;;;;4808142;29;20086;-73
2021/05/13 06:40:33;;;;;;;13.90;5.13;;;11.70;99.90;;;;;;4808440;29;20050;-73
2021/05/13 06:43:00;;;;;;;19.13;5.65;;;11.70;99.90;;;;;;4825462;29;20050;-73
2021/05/13 06:45:26;;;;;;;17.15;5.57;;;11.70;99.90;;;;;;4824525;29;20066;-73
2021/05/13 06:48:00;;;;;;;24.10;6.13;;;11.70;99.90;;;;;;4823418;29;20038;-73
2021/05/13 06:50:33;;;;;;;22.40;5.85;;;11.70;99.90;;;;;;4824199;29;20045;-73
2021/05/13 06:53:00;;;;;;;15.40;5.22;;;11.70;99.90;;;;;;4824396;29;20121;-73
2021/05/13 06:55:26;;;;;;;17.02;5.30;;;11.70;99.90;;;;;;4823128;29;20547;-73
2021/05/13 06:57:51;;;;;;;19.05;5.45;;;11.80;99.90;;;;;;4824222;29;20046;-73
2021/05/13 07:00:19;;;;;;;17.38;5.20;;;11.80;99.90;;;;;;4807902;29;20069;-73
2021/05/13 07:02:47;;;;;;;19.58;5.55;;;11.80;99.90;;;;;;4793050;29;20053;-73
2021/05/13 07:05:14;;;;;;;14.75;4.68;;;11.90;99.90;;;;;;4822174;29;20054;-79
2021/05/13 07:07:40;;;;;;;15.77;4.93;;;11.80;99.90;;;;;;4824116;29;20155;-79
2021/05/13 07:10:07;;;;;;;14.18;5.03;;;11.90;99.90;;;;;;4823955;29;20034;-78
2021/05/13 07:12:32;;;;;;;17.27;6.05;;;11.90;99.90;;;;;;4823173;29;20075;-79
2021/05/13 07:15:02;;;;;;;18.38;5.97;;;12.00;99.90;;;;;;4823830;29;20457;-79
2021/05/13 07:17:27;;;;;;;21.02;6.20;;;11.90;99.90;;;;;;4824366;29;20117;-79
2021/05/13 07:19:53;;;;;;;17.38;5.53;;;12.00;99.90;;;;;;4824020;29;20121;-79
2021/05/13 07:22:19;;;;;;;15.93;6.50;;;12.20;99.90;;;;;;4821657;29;20038;-79
2021/05/13 07:24:48;;;;;;;20.75;6.47;;;12.20;99.90;;;;;;4823957;29;20575;-79
2021/05/13 07:27:15;;;;;;;17.48;5.57;;;12.20;99.90;;;;;;4822571;29;20125;-79
2021/05/13 07:29:40;;;;;;;16.20;4.95;;;12.10;99.90;;;;;;4823786;29;20126;-78
2021/05/13 07:32:10;;;;;;;14.00;4.60;;;12.20;99.90;;;;;;4823910;29;20054;-78
2021/05/13 07:34:36;;;;;;;16.30;5.25;;;12.20;99.90;;;;;;4822889;29;20046;-79
2021/05/13 07:37:02;;;;;;;17.05;4.40;;;12.20;99.90;;;;;;4823378;29;20579;-79
2021/05/13 07:39:29;;;;;;;14.40;4.28;;;12.20;99.90;;;;;;4821152;29;20048;-78
2021/05/13 07:41:55;;;;;;;13.40;4.47;;;12.10;99.90;;;;;;4822666;29;20042;-79
2021/05/13 07:44:24;;;;;;;14.30;4.40;;;12.10;99.90;;;;;;4807539;29;20051;-79
2021/05/13 07:46:50;;;;;;;15.30;4.80;;;12.10;99.90;;;;;;4822583;29;20399;-73
2021/05/13 07:49:17;;;;;;;12.15;3.95;;;12.20;99.90;;;;;;4821336;29;20042;-73
2021/05/13 07:51:44;;;;;;;11.43;4.05;;;12.50;99.90;;;;;;4823625;29;20052;-79
2021/05/13 07:54:11;;;;;;;10.70;3.28;;;12.30;99.90;;;;;;4807290;29;20054;-79
2021/05/13 07:56:36;;;;;;;13.40;3.63;;;12.30;99.90;;;;;;4823545;29;20488;-79
2021/05/13 07:59:03;;;;;;;7.80;2.70;;;12.30;99.90;;;;;;4823502;29;20043;-79
2021/05/13 08:01:28;;;;;;;12.15;4.00;;;12.30;99.90;;;;;;4823412;29;20034;-79
2021/05/13 08:03:56;;;;;;;12.25;3.70;;;12.30;99.90;;;;;;4822348;29;20099;-79
2021/05/13 08:06:22;;;;;;;14.27;4.32;;;12.40;99.90;;;;;;4822067;29;20038;-79
2021/05/13 08:08:48;;;;;;;11.13;3.80;;;12.50;99.90;;;;;;4822264;29;20373;-79
2021/05/13 08:11:14;;;;;;;6.97;3.25;;;12.50;99.90;;;;;;4823503;29;20110;-79
2021/05/13 08:13:39;;;;;;;11.52;3.20;;;12.50;99.90;;;;;;4822164;29;20528;-79
2021/05/13 08:16:05;;;;;;;9.98;3.22;;;12.70;99.90;;;;;;4823526;29;20157;-73
2021/05/13 08:18:31;;;;;;;11.05;3.05;;;13.30;99.90;;;;;;4823105;29;20389;-73
2021/05/13 08:20:57;;;;;;;7.28;2.30;;;12.70;99.90;;;;;;4821075;29;20125;-79
2021/05/13 08:23:23;;;;;;;10.77;2.63;;;12.70;99.90;;;;;;4822077;29;20081;-73
2021/05/13 08:25:49;;;;;;;7.38;2.25;;;13.10;99.90;;;;;;4823202;29;20042;-74
2021/05/13 08:28:23;;;;;;;12.00;3.30;;;12.80;99.90;;;;;;4822263;29;20069;-73
2021/05/13 08:30:49;;;;;;;8.98;2.50;;;12.80;99.90;;;;;;4823156;29;20038;-73
2021/05/13 08:33:15;;;;;;;8.80;2.10;;;13.00;99.90;;;;;;4823276;29;20046;-73
2021/05/13 08:35:41;;;;;;;7.35;1.85;;;12.90;99.90;;;;;;4821907;29;20095;-73
2021/05/13 08:38:07;;;;;;;17.50;2.00;;;13.00;99.90;;;;;;4821563;29;20078;-73
2021/05/13 08:40:33;;;;;;;9.10;1.60;;;13.00;99.90;;;;;;4821738;29;20057;-74
2021/05/13 08:42:59;;;;;;;6.75;1.40;;;13.10;99.90;;;;;;4822994;29;20052;-74
2021/05/13 08:45:33;;;;;;;9.02;2.10;;;13.20;99.80;;;;;;4823017;29;20046;-73
2021/05/13 08:48:01;;;;;;;7.65;1.70;;;13.20;99.20;;;;;;4811035;29;20041;-73
2021/05/13 08:50:28;;;;;;;7.35;1.90;;;13.20;99.50;;;;;;4822954;29;20126;-74
2021/05/13 08:52:55;;;;;;;10.52;2.20;;;13.20;99.10;;;;;;4824126;29;20121;-73
2021/05/13 08:55:22;;;;;;;10.40;2.10;;;13.30;98.80;;;;;;4825976;29;20070;-73
2021/05/13 08:57:47;;;;;;;9.70;1.95;;;13.30;99.10;;;;;;4813144;29;20038;-73
2021/05/13 09:00:14;;;;;;;5.85;2.20;;;13.60;99.50;;;;;;4826002;29;20031;-74
2021/05/13 09:02:51;;;;;;;6.57;2.10;;;13.50;98.30;;;;;;4824626;29;20069;-74
2021/05/13 09:05:17;;;;;;;6.38;2.40;;;13.40;99.20;;;;;;4824672;29;20046;-74
2021/05/13 09:07:42;;;;;;;5.30;2.05;;;13.50;99.80;;;;;;4824576;29;20072;-74
2021/05/13 09:10:10;;;;;;;6.30;2.15;;;13.70;99.90;;;;;;4824762;29;20039;-73
2021/05/13 09:12:47;;;;;;;10.27;2.10;;;13.60;99.90;;;;;;4825798;29;20448;-73
2021/05/13 09:15:19;;;;;;;8.57;2.33;;;13.60;99.70;;;;;;4825700;29;20048;-73
2021/05/13 09:18:01;;;;;;;7.28;2.28;;;13.70;99.30;;;;;;4825510;29;20042;-74
2021/05/13 09:20:29;;;;;;;6.07;2.13;;;13.60;98.50;;;;;;4824458;29;20098;-74
2021/05/13 09:23:29;;;;;;;7.53;1.90;;;13.60;98.90;;;;;;4825573;29;20125;-74
2021/05/13 09:26:15;;;;;;;9.68;2.60;;;13.60;97.20;;;;;;4813967;29;20056;-74
2021/05/13 09:28:43;;;;;;;9.02;2.28;;;13.60;98.60;;;;;;4825395;29;20039;-74
2021/05/13 09:31:29;;;;;;;8.82;2.42;;;13.70;98.80;;;;;;4824372;29;20038;-74
2021/05/13 09:34:11;;;;;;;7.07;2.03;;;13.80;99.20;;;;;;4824140;29;20034;-75
2021/05/13 09:36:37;;;;;;;6.55;2.08;;;13.80;98.70;;;;;;4824176;29;20072;-74
2021/05/13 09:39:23;;;;;;;6.82;2.25;;;13.80;98.70;;;;;;4825381;29;20471;-74
2021/05/13 09:42:05;;;;;;;8.45;2.33;;;13.80;98.60;;;;;;4825382;29;20047;-74
2021/05/13 09:44:34;;;;;;;8.18;2.10;;;13.80;98.80;;;;;;4813098;29;20115;-74
2021/05/13 09:47:15;;;;;;;5.47;1.90;;;13.80;98.50;;;;;;4824101;29;20034;-74
2021/05/13 09:50:02;;;;;;;6.85;1.88;;;13.80;97.60;;;;;;4813340;29;20510;-74
2021/05/13 09:52:47;;;;;;;5.80;2.00;;;13.80;97.90;;;;;;4824929;29;20050;-78
2021/05/13 09:55:33;;;;;;;6.68;1.75;;;13.80;97.70;;;;;;4816584;29;20460;-80
2021/05/13 09:58:05;;;;;;;;;;;13.80;97.30;;;;;;4825995;29;20396;-80
2021/05/13 10:00:48;;;;;;;3.97;1.30;;;13.80;97.30;;;;;;4824327;29;19921;-74
2021/05/13 10:03:24;;;;;;;5.32;1.30;;;13.90;96.30;;;;;;4810985;29;20175;-74
2021/05/13 10:05:54;;;;;;;5.85;1.85;;;13.80;95.70;;;;;;4824060;29;20562;-74
2021/05/13 10:08:21;;;;;;;7.22;1.88;;;13.70;97.40;;;;;;4821665;29;20069;-74
2021/05/13 10:10:47;;;;;;;6.72;2.15;;;13.80;98.20;;;;;;4823130;29;20113;-74
2021/05/13 10:13:18;;;;;;;5.32;2.17;;;13.80;98.50;;;;;;4823669;29;20111;-74
2021/05/13 10:15:43;;;;;;;6.95;1.90;;;13.90;97.20;;;;;;4824771;29;20044;-74
2021/05/13 10:18:41;;;;;;;5.65;1.60;;;13.90;97.50;;;;;;4824674;29;20484;-74
2021/05/13 10:21:21;;;;;;;6.75;1.88;;;13.90;96.60;;;;;;4815031;29;20084;-74
2021/05/13 10:23:51;;;;;;;9.68;2.53;;;13.90;96.80;;;;;;4823291;29;20042;-74
2021/05/13 10:26:33;;;;;;;9.63;2.80;;;14.00;97.20;;;;;;4823529;29;20041;-74
2021/05/13 10:28:59;;;;;;;8.05;2.40;;;13.90;97.60;;;;;;4823339;29;20067;-74
2021/05/13 10:31:36;;;;;;;8.52;2.75;;;14.00;97.90;;;;;;4824554;29;20043;-74
2021/05/13 10:34:03;;;;;;;7.82;2.58;;;14.10;97.60;;;;;;4824496;29;20069;-73
2021/05/13 10:36:30;;;;;;;5.47;2.00;;;14.20;97.40;;;;;;4824596;29;20070;-74
2021/05/13 10:39:08;;;;;;;8.13;2.75;;;14.00;97.30;;;;;;4823393;29;20055;-74
2021/05/13 10:41:37;;;;;;;6.70;2.55;;;14.00;97.70;;;;;;4823442;29;20058;-74
2021/05/13 10:44:11;;;;;;;8.35;3.10;;;14.10;97.90;;;;;;4822145;29;20043;-74
2021/05/13 10:46:52;;;;;;;7.20;2.95;;;14.20;98.10;;;;;;4824468;29;20050;-74
2021/05/13 10:49:21;;;;;;;6.60;2.63;;;14.20;97.80;;;;;;4824428;29;20064;-74
2021/05/13 10:52:25;;;;;;;6.47;2.83;;;14.20;97.60;;;;;;4823185;29;20069;-74
2021/05/13 10:54:51;;;;;;;8.30;3.40;;;14.30;97.40;;;;;;4811485;29;20142;-74
2021/05/13 10:57:20;;;;;;;10.65;3.50;;;14.30;97.30;;;;;;4823046;29;20118;-74
2021/05/13 11:00:04;;;;;;;12.25;3.83;;;14.20;96.60;;;;;;4818799;29;20045;-74
2021/05/13 11:02:36;;;;;;;10.60;3.90;;;14.10;97.60;;;;;;4818773;29;20107;-74
2021/05/13 11:05:32;;;;;;;10.05;4.13;;;14.20;97.70;;;;;;4824147;29;20050;-74
2021/05/13 11:08:07;;;;;;;7.70;3.97;;;14.30;97.70;;;;;;4824072;29;20418;-80
2021/05/13 11:10:59;;;;;;;10.13;3.65;;;14.50;97.10;;;;;;4837899;29;20046;-80
2021/05/13 11:13:42;;;;;;;7.90;3.70;;;14.40;97.30;;;;;;4823985;29;20038;-80
2021/05/13 11:16:41;;;;;;;13.32;3.78;;;14.40;97.80;;;;;;4822696;29;20057;-81
2021/05/13 11:19:32;;;;;;;5.80;3.00;;;14.40;97.20;;;;;;4812266;29;20042;-80
2021/05/13 11:22:00;;;;;;;9.70;3.40;;;14.50;97.10;;;;;;4823995;29;20102;-80
2021/05/13 11:24:35;;;;;;;16.08;3.50;;;14.50;97.40;;;;;;4822722;29;20046;-80
2021/05/13 11:27:02;;;;;;;10.60;3.63;;;14.60;97.90;;;;;;4822727;29;20050;-80
2021/05/13 11:29:28;;;;;;;12.02;3.70;;;14.60;98.10;;;;;;4823903;29;20441;-80
2021/05/13 11:31:53;;;;;;;8.60;3.60;;;14.60;97.90;;;;;;4822840;29;20141;-80
2021/05/13 11:34:20;;;;;;;10.55;3.88;;;14.60;98.00;;;;;;4823669;29;20090;-80
2021/05/13 11:36:48;;;;;;;10.35;3.70;;;14.70;98.40;;;;;;4823670;29;20042;-80
2021/05/13 11:39:21;;;;;;;10.80;3.58;;;14.50;98.50;;;;;;4823737;29;20511;-74
2021/05/13 11:41:49;;;;;;;7.82;3.28;;;14.50;98.40;;;;;;4823594;29;20038;-75
2021/05/13 11:44:20;;;;;;;7.15;3.35;;;14.60;98.30;;;;;;4823522;29;20050;-74
2021/05/13 11:46:51;;;;;;;8.95;3.47;;;14.60;98.40;;;;;;4823552;29;20043;-74
2021/05/13 11:49:17;;;;;;;8.95;3.33;;;14.50;98.40;;;;;;4806101;29;20136;-74
2021/05/13 11:51:46;;;;;;;7.40;3.30;;;14.50;98.40;;;;;;4822273;29;20179;-74
2021/05/13 11:54:12;;;;;;;10.43;3.25;;;14.50;98.40;;;;;;4823285;29;20066;-74
2021/05/13 11:56:43;;;;;;;11.63;3.28;;;14.50;98.50;;;;;;4822471;29;20065;-74
2021/05/13 11:59:17;;;;;;;10.27;2.80;;;14.50;98.50;;;;;;4822103;29;20042;-74
2021/05/13 12:01:47;;;;;;;8.52;3.10;;;14.50;98.40;;;;;;4822139;29;20403;-80
2021/05/13 12:04:13;;;;;;;8.73;3.30;;;14.60;98.50;;;;;;4822180;29;20046;-74
2021/05/13 12:07:00;;;;;;;10.90;3.55;;;14.60;98.90;;;;;;4823174;29;20065;-74
2021/05/13 12:09:27;;;;;;;7.35;2.78;;;14.60;99.00;;;;;;4823371;29;20066;-74
2021/05/13 12:11:54;;;;;;;9.05;3.08;;;14.70;98.70;;;;;;4823235;29;20552;-73
2021/05/13 12:14:24;;;;;;;10.82;3.30;;;14.60;98.40;;;;;;4822310;29;20052;-73
2021/05/13 12:17:09;;;;;;;8.30;3.10;;;14.50;98.50;;;;;;4821046;29;20042;-74
2021/05/13 12:19:43;;;;;;;9.70;3.20;;;14.60;97.90;;;;;;4820438;29;20042;-74
2021/05/13 12:22:11;;;;;;;9.25;3.50;;;14.50;98.40;;;;;;4823093;29;20095;-74
2021/05/13 12:24:41;;;;;;;8.80;2.75;;;14.50;98.90;;;;;;4823405;29;20038;-80
2021/05/13 12:27:10;;;;;;;6.78;2.53;;;14.50;98.90;;;;;;4826181;29;20038;-80
2021/05/13 12:29:40;;;;;;;15.65;3.63;;;14.50;98.70;;;;;;4826515;29;20046;-80
2021/05/13 12:32:06;;;;;;;7.78;3.03;;;14.50;98.80;;;;;;4826407;29;20096;-73
2021/05/13 12:34:42;;;;;;;7.25;2.88;;;14.50;98.80;;;;;;4824495;29;20050;-79
2021/05/13 12:37:19;;;;;;;7.55;2.63;;;14.50;98.90;;;;;;4824993;29;20058;-80
2021/05/13 12:39:45;;;;;;;13.63;3.38;;;14.60;98.50;;;;;;4825616;29;20069;-80
2021/05/13 12:42:31;;;;;;;9.45;3.40;;;14.50;98.80;;;;;;4826146;29;20122;-74
2021/05/13 12:45:17;;;;;;;11.45;2.95;;;14.60;98.70;;;;;;4825268;29;20042;-80
2021/05/13 12:47:45;;;;;;;9.00;3.15;;;14.60;98.50;;;;;;4826276;29;20048;-74
2021/05/13 12:50:13;;;;;;;8.05;3.35;;;14.60;98.60;;;;;;4826242;29;20049;-73
2021/05/13 12:52:40;;;;;;;7.78;3.22;;;14.50;98.60;;;;;;4824998;29;20039;-80
2021/05/13 12:55:24;;;;;;;6.50;2.80;;;14.50;98.80;;;;;;4810415;29;20073;-80
2021/05/13 12:57:50;;;;;;;10.80;3.05;;;14.60;98.50;;;;;;4825995;29;20052;-80
2021/05/13 13:00:17;;;;;;;16.50;3.10;;;14.60;98.50;;;;;;4810122;29;20050;-74